createdAt,value
2023-01-12T00:02:26.561Z,4.65
2023-01-12T00:04:58.179Z,4.66
2023-01-12T00:07:33.459Z,4.68
2023-01-12T00:10:05.376Z,4.69
2023-01-12T00:12:36.955Z,4.72
2023-01-12T00:15:09.808Z,4.72
2023-01-12T00:17:41.525Z,4.74
2023-01-12T00:20:13.253Z,4.77
2023-01-12T00:22:49.729Z,4.78
2023-01-12T00:25:21.357Z,4.79
2023-01-12T00:27:53.378Z,4.81
2023-01-12T00:30:24.959Z,4.83
2023-01-12T00:32:56.564Z,4.85
2023-01-12T00:35:28.264Z,4.86
2023-01-12T00:37:59.876Z,4.89
2023-01-12T00:40:31.569Z,4.92
2023-01-12T00:43:25.641Z,4.93
2023-01-12T00:45:57.940Z,4.94
2023-01-12T00:48:33.640Z,4.95
2023-01-12T00:51:08.342Z,4.96
2023-01-12T00:53:39.921Z,4.97
2023-01-12T00:56:15.054Z,4.96
2023-01-12T00:58:47.155Z,4.94
2023-01-12T01:01:21.194Z,4.92
2023-01-12T01:03:52.975Z,4.90
2023-01-12T01:06:25.111Z,4.90
2023-01-12T01:08:59.036Z,4.89
2023-01-12T01:11:30.680Z,4.88
2023-01-12T01:14:03.072Z,4.87
2023-01-12T01:16:38.157Z,4.85
2023-01-12T01:19:10.257Z,4.83
2023-01-12T01:21:41.999Z,4.82
2023-01-12T01:24:17.891Z,4.79
2023-01-12T01:26:50.175Z,4.76
2023-01-12T01:29:21.860Z,4.75
2023-01-12T01:31:56.295Z,4.73
2023-01-12T01:34:27.999Z,4.72
2023-01-12T01:36:59.973Z,4.70
2023-01-12T01:39:31.604Z,4.68
2023-01-12T01:42:03.241Z,4.66
2023-01-12T01:44:44.114Z,4.65
2023-01-12T01:47:28.296Z,4.64
2023-01-12T01:50:04.316Z,4.61
2023-01-12T01:52:42.327Z,4.61
2023-01-12T01:55:26.775Z,4.59
2023-01-12T01:58:20.427Z,4.56
2023-01-12T02:00:52.802Z,4.57
2023-01-12T02:03:25.992Z,4.55
2023-01-12T02:06:00.794Z,4.53
2023-01-12T02:08:45.500Z,4.53
2023-01-12T02:11:36.591Z,4.52
2023-01-12T02:14:28.722Z,4.52
2023-01-12T02:17:44.820Z,4.53
2023-01-12T02:20:52.903Z,4.52
2023-01-12T02:23:58.614Z,4.50
2023-01-12T02:26:37.071Z,4.47
2023-01-12T02:29:37.441Z,4.46
2023-01-12T02:32:14.752Z,4.42
2023-01-12T02:35:06.005Z,4.41
2023-01-12T02:38:14.793Z,4.40
2023-01-12T02:41:00.580Z,4.40
2023-01-12T02:43:36.533Z,4.38
2023-01-12T02:46:25.941Z,4.37
2023-01-12T02:49:01.291Z,4.40
2023-01-12T02:51:59.509Z,4.44
2023-01-12T02:54:34.645Z,4.49
2023-01-12T02:57:09.277Z,4.52
2023-01-12T02:59:48.114Z,4.55
2023-01-12T03:02:25.213Z,4.60
2023-01-12T03:04:58.261Z,4.64
2023-01-12T03:08:00.528Z,4.65
2023-01-12T03:10:35.271Z,4.68
2023-01-12T03:13:15.129Z,4.72
2023-01-12T03:15:55.732Z,4.74
2023-01-12T03:18:32.835Z,4.77
2023-01-12T03:21:12.010Z,4.79
2023-01-12T03:23:53.981Z,4.81
2023-01-12T03:26:28.421Z,4.82
2023-01-12T03:29:07.267Z,4.84
2023-01-12T03:31:39.191Z,4.85
2023-01-12T03:34:12.468Z,4.85
2023-01-12T03:37:25.853Z,4.86
2023-01-12T03:40:18.973Z,4.87
2023-01-12T03:43:12.175Z,4.83
2023-01-12T03:46:03.031Z,4.82
2023-01-12T03:48:46.780Z,4.83
2023-01-12T03:51:25.685Z,4.84
2023-01-12T03:53:59.050Z,4.87
2023-01-12T03:56:36.529Z,4.86
2023-01-12T03:59:09.736Z,4.84
2023-01-12T04:01:43.902Z,4.82
2023-01-12T04:04:15.961Z,4.81
2023-01-12T04:06:48.199Z,4.79
2023-01-12T04:09:23.197Z,4.78
2023-01-12T04:12:13.089Z,4.75
2023-01-12T04:14:48.051Z,4.73
2023-01-12T04:17:24.323Z,4.76
2023-01-12T04:19:56.007Z,4.76
2023-01-12T04:22:46.175Z,4.75
2023-01-12T04:25:20.694Z,4.74
2023-01-12T04:27:57.298Z,4.71
2023-01-12T04:30:30.907Z,4.68
2023-01-12T04:33:11.538Z,4.65
2023-01-12T04:35:43.423Z,4.60
2023-01-12T04:38:16.897Z,4.57
2023-01-12T04:40:54.466Z,4.54
2023-01-12T04:43:26.085Z,4.51
2023-01-12T04:45:57.816Z,4.47
2023-01-12T04:48:29.430Z,4.45
2023-01-12T04:51:01.473Z,4.46
2023-01-12T04:53:34.492Z,4.50
2023-01-12T04:56:07.649Z,4.56
2023-01-12T04:58:39.309Z,4.60
2023-01-12T05:01:21.092Z,4.63
2023-01-12T05:03:56.060Z,4.66
2023-01-12T05:06:28.955Z,4.64
2023-01-12T05:09:20.128Z,4.62
2023-01-12T05:11:51.958Z,4.63
2023-01-12T05:14:23.906Z,4.63
2023-01-12T05:16:59.101Z,4.62
2023-01-12T05:19:30.886Z,4.59
2023-01-12T05:22:02.615Z,4.58
2023-01-12T05:24:34.250Z,4.61
2023-01-12T05:27:05.892Z,4.64
2023-01-12T05:29:40.030Z,4.68
2023-01-12T05:32:11.748Z,4.72
2023-01-12T05:34:46.308Z,4.76
2023-01-12T05:37:18.035Z,4.79
2023-01-12T05:39:49.635Z,4.82
2023-01-12T05:42:40.121Z,4.83
2023-01-12T05:45:12.488Z,4.85
2023-01-12T05:47:44.223Z,4.86
2023-01-12T05:50:15.899Z,4.88
2023-01-12T05:52:52.309Z,4.90
2023-01-12T05:55:24.209Z,4.91
2023-01-12T05:57:55.891Z,4.93
2023-01-12T06:00:27.644Z,4.92
2023-01-12T06:02:59.282Z,4.90
2023-01-12T06:05:31.263Z,4.92
2023-01-12T06:08:03.063Z,4.94
2023-01-12T06:10:38.358Z,4.98
2023-01-12T06:13:28.628Z,4.99
2023-01-12T06:16:07.882Z,5.01
2023-01-12T06:18:40.747Z,5.01
2023-01-12T06:21:12.817Z,5.02
2023-01-12T06:23:46.102Z,5.03
2023-01-12T06:26:17.921Z,5.03
2023-01-12T06:28:49.648Z,5.03
2023-01-12T06:31:21.413Z,5.03
2023-01-12T06:33:53.086Z,5.00
2023-01-12T06:36:24.845Z,5.01
2023-01-12T06:38:56.481Z,5.00
2023-01-12T06:41:47.082Z,5.00
2023-01-12T06:44:19.054Z,4.97
2023-01-12T06:46:50.713Z,4.97
2023-01-12T06:49:22.440Z,4.94
2023-01-12T06:51:54.246Z,4.92
2023-01-12T06:54:26.168Z,4.92
2023-01-12T06:56:58.064Z,4.92
2023-01-12T06:59:29.770Z,4.94
2023-01-12T07:02:01.483Z,4.96
2023-01-12T07:04:33.241Z,4.97
2023-01-12T07:07:05.030Z,4.98
2023-01-12T07:09:38.826Z,5.02
2023-01-12T07:12:11.829Z,5.06
2023-01-12T07:14:44.208Z,5.09
2023-01-12T07:17:18.855Z,5.10
2023-01-12T07:19:53.559Z,5.11
2023-01-12T07:22:31.454Z,5.15
2023-01-12T07:25:07.406Z,5.16
2023-01-12T07:27:40.492Z,5.17
2023-01-12T07:30:13.764Z,5.18
2023-01-12T07:32:46.669Z,5.18
2023-01-12T07:35:19.065Z,5.19
2023-01-12T07:37:54.062Z,5.21
2023-01-12T07:40:26.394Z,5.22
2023-01-12T07:43:02.415Z,5.24
2023-01-12T07:45:37.983Z,5.27
2023-01-12T07:48:09.920Z,5.28
2023-01-12T07:50:42.709Z,5.30
2023-01-12T07:53:16.051Z,5.32
2023-01-12T07:55:48.291Z,5.33
2023-01-12T07:58:20.403Z,5.37
2023-01-12T08:00:52.075Z,5.41
2023-01-12T08:03:23.756Z,5.44
2023-01-12T08:06:01.028Z,5.45
2023-01-12T08:08:34.987Z,5.46
2023-01-12T08:11:09.487Z,5.47
2023-01-12T08:13:42.154Z,5.50
2023-01-12T08:16:21.111Z,5.56
2023-01-12T08:19:01.476Z,5.60
2023-01-12T08:21:46.195Z,5.62
2023-01-12T08:24:24.223Z,5.63
2023-01-12T08:26:59.797Z,5.64
2023-01-12T08:29:42.265Z,5.67
2023-01-12T08:32:18.144Z,5.69
2023-01-12T08:34:53.859Z,5.72
2023-01-12T08:37:25.823Z,5.75
2023-01-12T08:39:57.839Z,5.77
2023-01-12T08:42:31.978Z,5.78
2023-01-12T08:45:07.166Z,5.83
2023-01-12T08:47:40.903Z,5.91
2023-01-12T08:50:12.529Z,5.97
2023-01-12T08:52:44.489Z,6.02
2023-01-12T08:55:16.255Z,6.07
2023-01-12T08:57:47.907Z,6.05
2023-01-12T09:00:20.533Z,6.00
2023-01-12T09:02:52.143Z,5.95
2023-01-12T09:05:35.081Z,5.92
2023-01-12T09:08:06.974Z,5.87
2023-01-12T09:10:39.261Z,5.86
2023-01-12T09:13:15.887Z,5.83
2023-01-12T09:16:01.313Z,5.83
2023-01-12T09:18:43.019Z,5.83
2023-01-12T09:21:17.506Z,5.83
2023-01-12T09:23:49.775Z,5.83
2023-01-12T09:26:28.341Z,5.83
2023-01-12T09:29:01.391Z,5.82
2023-01-12T09:31:34.938Z,5.83
2023-01-12T09:34:06.646Z,5.84
2023-01-12T09:36:39.767Z,5.87
2023-01-12T09:39:26.862Z,5.90
2023-01-12T09:42:28.665Z,5.92
2023-01-12T09:45:18.799Z,5.94
2023-01-12T09:47:57.253Z,5.98
2023-01-12T09:50:34.406Z,6.01
2023-01-12T09:53:23.452Z,6.04
2023-01-12T09:56:02.999Z,6.13
2023-01-12T09:58:37.632Z,6.23
2023-01-12T10:01:24.145Z,6.31
2023-01-12T10:04:02.256Z,6.36
2023-01-12T10:06:34.809Z,6.45
2023-01-12T10:09:18.657Z,6.46
2023-01-12T10:12:20.037Z,6.42
2023-01-12T10:15:05.829Z,6.37
2023-01-12T10:17:55.364Z,6.36
2023-01-12T10:20:33.999Z,6.35
2023-01-12T10:23:08.508Z,6.37
2023-01-12T10:25:46.449Z,6.39
2023-01-12T10:28:27.519Z,6.46
2023-01-12T10:31:00.364Z,6.49
2023-01-12T10:33:34.619Z,6.50
2023-01-12T10:36:21.704Z,6.46
2023-01-12T10:38:57.810Z,6.40
2023-01-12T10:41:31.867Z,6.36
2023-01-12T10:44:03.499Z,6.31
2023-01-12T10:46:36.219Z,6.28
2023-01-12T10:49:19.777Z,6.25
2023-01-12T10:51:59.958Z,6.21
2023-01-12T10:54:37.781Z,6.19
2023-01-12T10:57:24.091Z,6.18
2023-01-12T11:00:02.654Z,6.19
2023-01-12T11:02:44.768Z,6.21
2023-01-12T11:05:38.587Z,6.25
2023-01-12T11:08:43.340Z,6.28
2023-01-12T11:11:28.005Z,6.31
2023-01-12T11:14:03.904Z,6.30
2023-01-12T11:16:45.891Z,6.32
2023-01-12T11:19:19.107Z,6.33
2023-01-12T11:22:16.338Z,6.33
2023-01-12T11:24:57.692Z,6.32
2023-01-12T11:27:35.946Z,6.28
2023-01-12T11:30:15.977Z,6.27
2023-01-12T11:32:59.253Z,6.28
2023-01-12T11:35:53.203Z,6.27
2023-01-12T11:38:35.625Z,6.29
2023-01-12T11:41:14.073Z,6.32
2023-01-12T11:43:52.680Z,6.34
2023-01-12T11:46:42.612Z,6.34
2023-01-12T11:49:31.762Z,6.35
2023-01-12T11:52:03.699Z,6.34
2023-01-12T11:54:38.654Z,6.34
2023-01-12T11:57:28.286Z,6.36
2023-01-12T12:00:25.752Z,6.41
2023-01-12T12:03:13.978Z,6.48
2023-01-12T12:06:07.540Z,6.51
2023-01-12T12:09:08.481Z,6.56
2023-01-12T12:11:57.662Z,6.66
2023-01-12T12:14:46.012Z,6.74
2023-01-12T12:17:33.546Z,6.80
2023-01-12T12:20:17.067Z,6.86
2023-01-12T12:23:16.291Z,6.91
2023-01-12T12:25:57.834Z,7.04
2023-01-12T12:28:52.863Z,7.11
2023-01-12T12:31:24.646Z,7.14
2023-01-12T12:34:28.975Z,7.13
2023-01-12T12:37:02.784Z,7.06
2023-01-12T12:39:48.732Z,7.06
2023-01-12T12:42:48.128Z,7.02
2023-01-12T12:45:21.607Z,7.14
2023-01-12T12:48:36.963Z,7.17
2023-01-12T12:51:09.931Z,7.13
2023-01-12T12:53:46.212Z,7.06
2023-01-12T12:56:20.954Z,7.03
2023-01-12T12:58:53.873Z,7.01
2023-01-12T13:01:27.683Z,6.98
2023-01-12T13:04:03.167Z,6.93
2023-01-12T13:06:40.240Z,6.90
2023-01-12T13:09:11.890Z,6.86
2023-01-12T13:12:10.353Z,6.87
2023-01-12T13:14:43.801Z,6.83
2023-01-12T13:17:21.759Z,6.79
2023-01-12T13:20:10.697Z,6.78
2023-01-12T13:22:49.752Z,6.76
2023-01-12T13:25:23.267Z,6.76
2023-01-12T13:27:57.742Z,6.76
2023-01-12T13:30:29.603Z,6.75
2023-01-12T13:33:24.315Z,6.76
2023-01-12T13:36:00.994Z,6.76
2023-01-12T13:38:53.533Z,6.75
2023-01-12T13:41:53.313Z,6.75
2023-01-12T13:44:35.276Z,6.74
2023-01-12T13:47:23.792Z,6.75
2023-01-12T13:49:59.260Z,6.73
2023-01-12T13:52:34.238Z,6.72
2023-01-12T13:55:20.363Z,6.68
2023-01-12T13:58:17.017Z,6.67
2023-01-12T14:01:03.136Z,6.66
2023-01-12T14:03:44.303Z,6.64
2023-01-12T14:06:21.829Z,6.64
2023-01-12T14:09:05.210Z,6.64
2023-01-12T14:11:39.683Z,6.63
2023-01-12T14:14:30.838Z,6.62
2023-01-12T14:17:33.315Z,6.61
2023-01-12T14:20:14.555Z,6.60
2023-01-12T14:22:46.972Z,6.61
2023-01-12T14:25:23.084Z,6.59
2023-01-12T14:27:57.151Z,6.62
2023-01-12T14:30:32.707Z,6.63
2023-01-12T14:33:06.310Z,6.63
2023-01-12T14:35:46.916Z,6.66
2023-01-12T14:38:19.427Z,6.68
2023-01-12T14:41:03.078Z,6.65
2023-01-12T14:43:56.023Z,6.68
2023-01-12T14:46:33.739Z,6.68
2023-01-12T14:49:25.543Z,6.69
2023-01-12T14:51:59.957Z,6.69
2023-01-12T14:54:34.399Z,6.69
2023-01-12T14:57:09.340Z,6.70
2023-01-12T14:59:48.731Z,6.72
2023-01-12T15:02:39.236Z,6.75
2023-01-12T15:05:10.828Z,6.78
2023-01-12T15:08:21.608Z,6.80
2023-01-12T15:11:06.855Z,6.83
2023-01-12T15:13:38.768Z,6.85
2023-01-12T15:16:29.159Z,6.88
2023-01-12T15:19:19.910Z,6.88
2023-01-12T15:22:10.428Z,6.92
2023-01-12T15:25:00.906Z,6.95
2023-01-12T15:27:32.598Z,6.97
2023-01-12T15:30:08.595Z,6.98
2023-01-12T15:32:47.715Z,6.99
2023-01-12T15:35:24.209Z,7.01
2023-01-12T15:37:58.455Z,7.02
2023-01-12T15:40:30.985Z,7.03
2023-01-12T15:43:04.777Z,7.04
2023-01-12T15:45:42.204Z,7.06
2023-01-12T15:48:14.598Z,7.06
2023-01-12T15:50:46.864Z,7.05
2023-01-12T15:53:22.375Z,7.07
2023-01-12T15:55:55.334Z,7.07
2023-01-12T15:58:28.347Z,7.11
2023-01-12T16:01:00.072Z,7.12
2023-01-12T16:04:00.543Z,7.15
2023-01-12T16:06:31.245Z,7.16
2023-01-12T16:09:03.453Z,7.19
2023-01-12T16:11:35.077Z,7.20
2023-01-12T16:14:07.102Z,7.26
2023-01-12T16:16:38.926Z,7.26
2023-01-12T16:19:19.432Z,7.23
2023-01-12T16:21:55.301Z,7.19
2023-01-12T16:24:31.080Z,7.12
2023-01-12T16:27:02.896Z,7.04
2023-01-12T16:29:34.569Z,6.96
2023-01-12T16:32:06.753Z,6.89
2023-01-12T16:34:39.226Z,6.82
2023-01-12T16:37:15.969Z,6.78
2023-01-12T16:39:47.633Z,6.76
2023-01-12T16:42:19.801Z,6.74
2023-01-12T16:44:54.207Z,6.71
2023-01-12T16:47:25.849Z,6.72
2023-01-12T16:49:57.832Z,6.71
2023-01-12T16:52:31.763Z,6.73
2023-01-12T16:55:06.098Z,6.76
2023-01-12T16:57:39.271Z,6.77
2023-01-12T17:00:11.458Z,6.76
2023-01-12T17:02:43.335Z,6.79
2023-01-12T17:05:15.387Z,6.80
2023-01-12T17:07:50.724Z,6.81
2023-01-12T17:10:28.315Z,6.83
2023-01-12T17:13:02.519Z,6.86
2023-01-12T17:15:35.093Z,6.88
2023-01-12T17:18:07.438Z,6.89
2023-01-12T17:20:39.853Z,6.91
2023-01-12T17:23:13.030Z,6.91
2023-01-12T17:25:44.715Z,6.93
2023-01-12T17:28:17.103Z,6.93
2023-01-12T17:30:48.974Z,6.93
2023-01-12T17:33:21.724Z,6.93
2023-01-12T17:35:56.779Z,6.94
2023-01-12T17:38:28.511Z,6.94
2023-01-12T17:41:00.264Z,6.94
2023-01-12T17:43:31.952Z,6.95
2023-01-12T17:46:05.078Z,6.96
2023-01-12T17:48:37.471Z,6.97
2023-01-12T17:51:12.660Z,6.97
2023-01-12T17:53:45.943Z,6.98
2023-01-12T17:56:18.288Z,6.98
2023-01-12T17:58:55.572Z,6.97
2023-01-12T18:01:31.914Z,6.97
2023-01-12T18:04:07.623Z,6.97
2023-01-12T18:06:41.066Z,6.95
2023-01-12T18:09:14.175Z,6.95
2023-01-12T18:11:48.855Z,6.95
2023-01-12T18:14:26.186Z,6.96
2023-01-12T18:17:00.263Z,6.97
2023-01-12T18:19:36.934Z,6.97
2023-01-12T18:22:11.796Z,6.95
2023-01-12T18:24:43.483Z,6.91
2023-01-12T18:27:15.163Z,6.89
2023-01-12T18:29:47.226Z,6.87
2023-01-12T18:32:19.107Z,6.86
2023-01-12T18:34:50.819Z,6.86
2023-01-12T18:37:22.480Z,6.86
2023-01-12T18:39:54.216Z,6.87
2023-01-12T18:42:46.951Z,6.88
2023-01-12T18:45:19.951Z,6.87
2023-01-12T18:48:10.910Z,6.89
2023-01-12T18:51:01.160Z,6.89
2023-01-12T18:53:33.480Z,6.90
2023-01-12T18:56:06.061Z,6.92
2023-01-12T18:58:39.276Z,6.93
2023-01-12T19:01:11.929Z,6.95
2023-01-12T19:03:44.002Z,6.96
2023-01-12T19:06:37.484Z,6.96
2023-01-12T19:09:27.911Z,6.95
2023-01-12T19:11:59.621Z,6.97
2023-01-12T19:14:50.003Z,6.97
2023-01-12T19:17:27.469Z,6.98
2023-01-12T19:20:02.316Z,6.93
2023-01-12T19:22:52.716Z,6.98
2023-01-12T19:25:42.940Z,6.96
2023-01-12T19:28:32.783Z,6.96
2023-01-12T19:31:07.427Z,6.96
2023-01-12T19:33:39.635Z,6.95
2023-01-12T19:36:16.469Z,6.95
2023-01-12T19:38:50.825Z,6.96
2023-01-12T19:41:41.080Z,6.95
2023-01-12T19:44:12.702Z,6.94
2023-01-12T19:46:44.485Z,6.93
2023-01-12T19:49:17.624Z,6.92
2023-01-12T19:51:50.810Z,6.93
2023-01-12T19:54:22.512Z,6.94
2023-01-12T19:56:54.167Z,6.94
2023-01-12T19:59:25.843Z,6.95
2023-01-12T20:01:57.535Z,6.95
2023-01-12T20:04:30.021Z,6.96
2023-01-12T20:07:02.111Z,6.97
2023-01-12T20:09:33.722Z,6.97
2023-01-12T20:12:06.157Z,6.98
2023-01-12T20:14:37.768Z,6.97
2023-01-12T20:17:10.324Z,6.95
2023-01-12T20:19:42.196Z,6.94
2023-01-12T20:22:14.210Z,6.93
2023-01-12T20:24:47.464Z,6.92
2023-01-12T20:27:19.250Z,6.92
2023-01-12T20:29:50.909Z,6.91
2023-01-12T20:32:22.586Z,6.91
2023-01-12T20:34:54.265Z,6.91
2023-01-12T20:37:25.881Z,6.91
2023-01-12T20:39:58.103Z,6.92
2023-01-12T20:42:31.748Z,6.94
2023-01-12T20:45:04.864Z,6.93
2023-01-12T20:47:36.515Z,6.94
2023-01-12T20:50:11.871Z,6.94
2023-01-12T20:52:44.057Z,6.94
2023-01-12T20:55:15.780Z,6.95
2023-01-12T20:57:50.590Z,6.96
2023-01-12T21:00:22.425Z,6.96
2023-01-12T21:02:54.118Z,6.97
2023-01-12T21:05:26.777Z,6.97
2023-01-12T21:08:07.397Z,6.99
2023-01-12T21:10:47.252Z,7.00
2023-01-12T21:13:20.838Z,7.02
2023-01-12T21:16:00.425Z,7.03
2023-01-12T21:18:33.650Z,7.06
2023-01-12T21:21:06.142Z,7.07
2023-01-12T21:23:38.732Z,7.08
2023-01-12T21:26:11.281Z,7.09
2023-01-12T21:28:43.253Z,7.07
2023-01-12T21:31:15.234Z,7.07
2023-01-12T21:33:47.336Z,7.07
2023-01-12T21:36:21.770Z,7.07
2023-01-12T21:38:56.972Z,7.07
2023-01-12T21:41:28.645Z,7.07
2023-01-12T21:44:02.822Z,7.08
2023-01-12T21:46:34.865Z,7.09
2023-01-12T21:49:15.639Z,7.11
2023-01-12T21:51:47.550Z,7.11
2023-01-12T21:54:19.631Z,7.11
2023-01-12T21:56:51.342Z,7.12
2023-01-12T21:59:22.974Z,7.13
2023-01-12T22:02:01.025Z,7.15
2023-01-12T22:04:32.868Z,7.16
2023-01-12T22:07:07.249Z,7.17
2023-01-12T22:09:39.609Z,7.19
2023-01-12T22:12:11.247Z,7.20
2023-01-12T22:14:42.823Z,7.21
2023-01-12T22:17:14.457Z,7.22
2023-01-12T22:19:46.077Z,7.23
2023-01-12T22:22:17.693Z,7.24
2023-01-12T22:24:49.262Z,7.24
2023-01-12T22:27:21.268Z,7.24
2023-01-12T22:29:52.971Z,7.25
2023-01-12T22:32:26.972Z,7.26
2023-01-12T22:35:01.775Z,7.26
2023-01-12T22:37:35.869Z,7.28
2023-01-12T22:40:11.823Z,7.29
2023-01-12T22:43:02.108Z,7.29
2023-01-12T22:45:35.737Z,7.29
2023-01-12T22:48:07.392Z,7.30
2023-01-12T22:50:39.042Z,7.31
2023-01-12T22:53:10.720Z,7.32
2023-01-12T22:55:42.414Z,7.31
2023-01-12T22:58:14.006Z,7.30
2023-01-12T23:00:45.862Z,7.29
2023-01-12T23:03:17.781Z,7.29
2023-01-12T23:05:56.185Z,7.29
2023-01-12T23:08:28.018Z,7.29
2023-01-12T23:11:07.385Z,7.30
2023-01-12T23:13:44.068Z,7.29
2023-01-12T23:16:17.807Z,7.28
2023-01-12T23:18:50.494Z,7.27
2023-01-12T23:21:25.232Z,7.27
2023-01-12T23:24:00.052Z,7.28
2023-01-12T23:26:33.047Z,7.29
2023-01-12T23:29:04.893Z,7.30
2023-01-12T23:31:36.710Z,7.30
2023-01-12T23:34:08.596Z,7.30
2023-01-12T23:36:40.709Z,7.32
2023-01-12T23:39:12.455Z,7.33
2023-01-12T23:41:44.285Z,7.35
2023-01-12T23:44:17.528Z,7.34
2023-01-12T23:46:52.644Z,7.36
2023-01-12T23:49:25.572Z,7.37
2023-01-12T23:52:00.180Z,7.37
2023-01-12T23:54:32.303Z,7.36
2023-01-12T23:57:04.218Z,7.36
2023-01-12T23:59:36.209Z,7.35
